La Harpe, Illinois
Current Conditions -  °F | °C
As of 12:53 PM on Friday 21 Nov 2014 (Local Time) from KBRL Reporting Station
Clear Clear  
Wind Chill: 27°   Ceiling: Unl
Heat Index: 35°   Visibility: 10mi
Dew Point: 10°   Wind: 12mph
Humidity: 35%   Direction: 160°SSE
Pressure: 30.31"   Gusts: NA
Location:  40.58°N, 90.97°W
Report Text: KBRL 211853Z AUTO 16010KT 10SM CLR 02/M12 A3031 RMK AO2 SLP273 T00171122 $
Loading
Personal Weather Stations






























Interactive Weather Map New forecast layout! Learn more

10-Day Weather Forecast

Advertisements
Track Severe Weather on mobile